Time;durP1;ratioP1;P1;durP2;ratioP2;P2;SDS_P1;SDS_P2;PMS_P1;PMS_P2;Temp;Humidity;BMP_temperature;BMP_pressure;BME280_temperature;BME280_humidity;BME280_pressure;Samples;Min_cycle;Max_cycle;Signal;HPM_P1;HPM_P2
2021/06/05 07:02:13;;;;;;;2.63;1.17;;;;;;;20.45;64.89;99198.47;5093325;23;20051;-73
2021/06/05 07:04:39;;;;;;;2.88;1.13;;;;;;;21.29;64.99;99189.59;4916730;29;20044;-73
2021/06/05 07:07:05;;;;;;;1.75;1.00;;;;;;;21.86;61.57;99201.41;4916616;29;20055;-74
2021/06/05 07:09:32;;;;;;;1.83;1.17;;;;;;;22.11;59.74;99190.28;4925000;29;20028;-73
2021/06/05 07:11:58;;;;;;;4.75;1.00;;;;;;;21.97;61.58;99199.84;4917031;29;20050;-73
2021/06/05 07:14:24;;;;;;;2.35;1.50;;;;;;;22.32;59.17;99197.81;4917609;29;20036;-77
2021/06/05 07:16:50;;;;;;;4.25;1.70;;;;;;;23.06;58.02;99196.00;4916629;29;20043;-76
2021/06/05 07:19:15;;;;;;;4.70;1.50;;;;;;;23.83;54.76;99200.75;4916319;29;20058;-77
2021/06/05 07:21:41;;;;;;;1.90;1.20;;;;;;;22.51;58.91;99204.63;4916812;29;20036;-77
2021/06/05 07:24:07;;;;;;;2.65;1.17;;;;;;;23.99;54.69;99199.75;4916418;29;21514;-77
2021/06/05 07:26:34;;;;;;;2.47;1.20;;;;;;;24.97;51.43;99201.03;4916197;29;20043;-77
2021/06/05 07:29:04;;;;;;;2.22;1.08;;;;;;;26.21;47.98;99205.31;4916411;29;20035;-77
2021/06/05 07:31:34;;;;;;;1.60;0.88;;;;;;;27.29;43.29;99204.84;4916615;29;20051;-77
2021/06/05 07:34:00;;;;;;;1.73;0.75;;;;;;;27.59;44.24;99206.84;4916346;29;20580;-77
2021/06/05 07:36:48;;;;;;;3.15;1.02;;;;;;;27.11;44.25;99207.16;4928919;29;20034;-77
2021/06/05 07:39:16;;;;;;;0.68;0.57;;;;;;;26.62;44.10;99205.66;4916030;29;20047;-77
2021/06/05 07:41:42;;;;;;;2.38;0.95;;;;;;;26.33;45.53;99215.81;4916204;29;20028;-77
2021/06/05 07:44:10;;;;;;;2.35;1.00;;;;;;;28.74;40.86;99205.25;4914746;29;20023;-76
2021/06/05 07:46:44;;;;;;;2.67;0.90;;;;;;;30.67;37.36;99204.75;4915516;29;20038;-76
2021/06/05 07:49:09;;;;;;;1.30;0.90;;;;;;;31.44;35.98;99209.00;4916108;29;20061;-77
2021/06/05 07:51:35;;;;;;;2.22;0.90;;;;;;;30.42;37.02;99205.38;4914859;29;20176;-77
2021/06/05 07:54:00;;;;;;;7.18;1.13;;;;;;;30.29;37.86;99205.66;4915356;29;20024;-77
2021/06/05 07:56:25;;;;;;;2.30;1.00;;;;;;;29.41;39.88;99204.72;4914850;29;20043;-77
2021/06/05 07:58:51;;;;;;;4.55;1.13;;;;;;;30.16;37.93;99205.13;4915854;29;20055;-77
2021/06/05 08:01:16;;;;;;;1.15;0.88;;;;;;;27.13;44.05;99210.56;4915787;29;20143;-77
2021/06/05 08:03:42;;;;;;;1.85;1.02;;;;;;;28.07;42.80;99211.78;4915958;29;20040;-77
2021/06/05 08:06:08;;;;;;;1.50;0.93;;;;;;;27.51;43.85;99208.44;4915729;29;20122;-77
2021/06/05 08:08:33;;;;;;;2.38;1.40;;;;;;;27.19;44.32;99214.53;4916095;29;20028;-76
2021/06/05 08:10:59;;;;;;;5.57;1.10;;;;;;;26.98;44.71;99205.53;4915623;29;20507;-76
2021/06/05 08:13:24;;;;;;;2.45;1.27;;;;;;;26.30;46.87;99202.78;4916189;29;20450;-77
2021/06/05 08:15:51;;;;;;;1.20;1.02;;;;;;;26.63;45.64;99202.03;4915097;29;20111;-76
2021/06/05 08:18:18;;;;;;;3.65;1.27;;;;;;;27.30;43.97;99198.53;4916220;29;20509;-76
2021/06/05 08:20:49;;;;;;;2.88;1.48;;;;;;;25.68;48.90;99208.28;4915634;29;20027;-76
2021/06/05 08:23:15;;;;;;;4.13;1.40;;;;;;;25.68;48.88;99205.66;4915698;29;20040;-77
2021/06/05 08:25:41;;;;;;;1.98;1.40;;;;;;;24.38;52.12;99213.97;4913888;29;21354;-76
2021/06/05 08:28:08;;;;;;;3.03;1.30;;;;;;;23.82;54.61;99217.56;4915247;29;20028;-76
2021/06/05 08:30:38;;;;;;;4.90;1.10;;;;;;;22.42;57.08;99213.09;4915295;29;20040;-76
2021/06/05 08:33:04;;;;;;;5.47;1.90;;;;;;;21.96;59.70;99218.41;4913953;29;20568;-76
2021/06/05 08:35:29;;;;;;;1.45;1.20;;;;;;;22.63;58.42;99198.63;4915298;29;20150;-76
2021/06/05 08:37:55;;;;;;;3.22;1.50;;;;;;;22.27;58.98;99215.72;4915351;29;20438;-76
2021/06/05 08:40:46;;;;;;;7.35;3.55;;;;;;;22.51;59.44;99212.56;4915035;29;20028;-77
2021/06/05 08:43:18;;;;;;;2.30;1.23;;;;;;;21.93;60.94;99226.50;4909146;29;20136;-76
2021/06/05 08:45:43;;;;;;;4.90;1.70;;;;;;;22.36;59.61;99213.47;4914959;29;20031;-77
2021/06/05 08:48:19;;;;;;;2.40;1.40;;;;;;;21.73;61.44;99217.94;4914808;29;20038;-77
2021/06/05 08:50:45;;;;;;;1.95;1.48;;;;;;;21.65;61.28;99214.88;4911854;29;20047;-77
2021/06/05 08:53:23;;;;;;;2.15;1.30;;;;;;;21.51;62.45;99214.78;4910536;29;20027;-77
2021/06/05 08:55:55;;;;;;;3.03;1.45;;;;;;;21.29;63.99;99221.22;4914874;29;20032;-77
2021/06/05 08:58:31;;;;;;;2.58;1.15;;;;;;;21.21;65.35;99215.50;4914643;29;20024;-76
2021/06/05 09:01:13;;;;;;;2.72;1.23;;;;;;;21.19;64.91;99211.28;4914200;29;20438;-76
2021/06/05 09:03:39;;;;;;;3.22;1.55;;;;;;;20.97;65.24;99206.31;4914890;29;20122;-77
2021/06/05 09:06:04;;;;;;;2.85;1.60;;;;;;;21.26;66.44;99213.47;4914160;29;20056;-77
2021/06/05 09:08:30;;;;;;;7.28;2.50;;;;;;;21.31;66.42;99221.16;4914339;29;20035;-76
2021/06/05 09:10:58;;;;;;;7.72;1.90;;;;;;;21.17;65.80;99224.50;4914306;29;20040;-77
2021/06/05 09:13:24;;;;;;;2.88;1.30;;;;;;;21.07;64.99;99212.78;4914304;29;20059;-77
2021/06/05 09:16:18;;;;;;;1.50;1.40;;;;;;;20.76;67.39;99219.69;4914488;29;20111;-74
2021/06/05 09:18:56;;;;;;;4.13;1.52;;;;;;;20.79;66.35;99219.53;4915146;29;20404;-74
2021/06/05 09:21:27;;;;;;;7.47;1.88;;;;;;;21.14;67.10;99214.16;4915464;29;20176;-74
2021/06/05 09:23:54;;;;;;;3.83;1.98;;;;;;;21.11;66.53;99213.47;4914206;29;20039;-74
2021/06/05 09:26:23;;;;;;;3.28;1.85;;;;;;;21.64;64.97;99223.72;4915229;29;20032;-74
2021/06/05 09:29:05;;;;;;;6.80;1.92;;;;;;;21.85;63.46;99221.66;4914245;29;20035;-74
2021/06/05 09:31:30;;;;;;;3.13;1.75;;;;;;;21.65;62.69;99225.41;4914624;29;20272;-74
2021/06/05 09:33:56;;;;;;;4.32;2.03;;;;;;;21.57;63.67;99217.09;4914395;29;20035;-76
2021/06/05 09:36:33;;;;;;;1.52;1.38;;;;;;;21.20;65.49;99219.09;4913387;29;20121;-69
2021/06/05 09:39:01;;;;;;;4.53;2.90;;;;;;;21.48;65.66;99220.25;4914119;29;20028;-71
2021/06/05 09:41:39;;;;;;;3.13;1.80;;;;;;;21.50;64.13;99221.00;4902522;29;20509;-74
2021/06/05 09:44:24;;;;;;;2.70;1.77;;;;;;;21.52;64.56;99230.53;4912837;29;20040;-72
2021/06/05 09:46:59;;;;;;;3.00;2.05;;;;;;;21.47;64.28;99226.47;4913871;29;20028;-72
2021/06/05 09:49:46;;;;;;;1.98;1.50;;;;;;;21.49;64.11;99220.16;4914046;29;20028;-72
2021/06/05 09:52:13;;;;;;;3.70;2.03;;;;;;;21.76;65.08;99223.03;4914055;29;20066;-72
2021/06/05 09:54:42;;;;;;;6.00;2.72;;;;;;;22.04;62.57;99234.63;4913842;29;20437;-72
2021/06/05 09:57:30;;;;;;;6.57;1.85;;;;;;;22.12;62.11;99219.25;4913171;29;20115;-72
2021/06/05 10:00:00;;;;;;;3.67;1.57;;;;;;;22.07;62.98;99218.63;4913844;29;20032;-75
2021/06/05 10:02:26;;;;;;;1.92;1.25;;;;;;;21.96;63.69;99221.91;4913969;29;20958;-73
2021/06/05 10:05:28;;;;;;;5.93;1.70;;;;;;;22.14;61.82;99219.16;4913820;29;20042;-76
2021/06/05 10:07:57;;;;;;;53.08;37.30;;;;;;;21.98;62.77;99222.66;4914240;29;20024;-76
2021/06/05 10:10:39;;;;;;;10.60;7.57;;;;;;;21.83;62.64;99227.97;4917746;29;20035;-73
2021/06/05 10:13:17;;;;;;;6.90;1.60;;;;;;;21.91;62.53;99231.03;4916092;29;20071;-73
2021/06/05 10:15:54;;;;;;;11.18;1.60;;;;;;;22.12;61.63;99224.53;4917646;29;20035;-72
2021/06/05 10:18:32;;;;;;;2.67;1.27;;;;;;;22.02;61.19;99223.34;4917525;29;20059;-72
2021/06/05 10:21:21;;;;;;;5.10;1.33;;;;;;;22.08;62.13;99222.97;4916901;29;20028;-74
2021/06/05 10:23:49;;;;;;;;;;;;;;;21.80;62.25;99218.44;4918370;29;20163;-74
2021/06/05 10:26:29;;;;;;;11.60;4.32;;;;;;;21.96;62.74;99223.69;4917280;29;20005;-77
2021/06/05 10:29:24;;;;;;;3.38;1.75;;;;;;;21.92;62.15;99227.44;4917328;29;20111;-77
2021/06/05 10:31:51;;;;;;;3.22;1.40;;;;;;;22.00;62.92;99219.91;4909783;29;20039;-77
2021/06/05 10:34:43;;;;;;;2.97;1.50;;;;;;;21.76;61.78;99228.31;4917200;29;20121;-73
2021/06/05 10:37:16;;;;;;;4.97;1.63;;;;;;;22.00;62.97;99219.91;4919374;29;20054;-74
2021/06/05 10:39:44;;;;;;;6.70;1.73;;;;;;;22.07;61.74;99216.84;4910880;29;20055;-70
2021/06/05 10:42:22;;;;;;;36.70;25.45;;;;;;;22.01;62.75;99221.66;4917425;29;20028;-75
2021/06/05 10:44:48;;;;;;;4.72;1.90;;;;;;;22.32;62.31;99216.28;4917356;29;20481;-75
2021/06/05 10:47:32;;;;;;;4.63;1.38;;;;;;;22.23;61.78;99219.47;4916993;29;20167;-73
2021/06/05 10:50:24;;;;;;;3.05;1.30;;;;;;;21.85;63.61;99210.25;4917103;29;20139;-74
2021/06/05 10:52:58;;;;;;;3.10;1.33;;;;;;;22.68;60.84;99203.63;4917127;29;20123;-75
2021/06/05 10:55:44;;;;;;;3.97;1.42;;;;;;;22.90;59.73;99211.97;4916831;29;20477;-76
2021/06/05 10:58:33;;;;;;;2.70;1.38;;;;;;;22.54;62.07;99209.75;4914179;29;20039;-76
2021/06/05 11:01:05;;;;;;;2.90;1.50;;;;;;;23.23;58.08;99203.72;4915520;29;20031;-76
2021/06/05 11:03:30;;;;;;;4.72;1.33;;;;;;;23.01;58.64;99203.34;4914856;29;20032;-76
2021/06/05 11:06:02;;;;;;;8.90;3.75;;;;;;;23.14;59.54;99204.28;4913764;29;20039;-76
2021/06/05 11:08:30;;;;;;;5.95;1.30;;;;;;;23.27;58.39;99209.69;4907582;29;20036;-77
2021/06/05 11:11:02;;;;;;;2.08;1.20;;;;;;;23.18;58.72;99200.53;4915541;29;20493;-76
2021/06/05 11:13:35;;;;;;;4.28;1.45;;;;;;;22.96;61.00;99203.63;4923419;29;20070;-73
2021/06/05 11:16:10;;;;;;;2.97;1.10;;;;;;;22.98;60.04;99203.56;4916235;29;20795;-74
2021/06/05 11:18:59;;;;;;;1.98;1.27;;;;;;;22.45;61.07;99202.38;4916531;29;20110;-74
2021/06/05 11:21:26;;;;;;;3.33;1.50;;;;;;;22.46;61.57;99202.28;4904848;29;20123;-75
2021/06/05 11:23:58;;;;;;;2.17;1.17;;;;;;;22.94;61.06;99196.78;4916292;29;20046;-75
2021/06/05 11:26:36;;;;;;;3.80;1.52;;;;;;;23.29;59.42;99195.41;4915743;29;20024;-74
2021/06/05 11:29:25;;;;;;;2.97;1.30;;;;;;;23.13;60.91;99192.03;4916845;29;20028;-74
2021/06/05 11:31:58;;;;;;;;;;;;;;;24.54;58.33;99177.50;4917414;29;20445;-75
2021/06/05 11:34:44;;;;;;;4.32;1.50;;;;;;;24.28;57.12;99180.09;4915748;29;19925;-74
2021/06/05 11:37:12;;;;;;;2.83;1.55;;;;;;;25.70;56.41;99190.44;4930628;29;20059;-75
2021/06/05 11:39:54;;;;;;;1.80;1.05;;;;;;;25.24;53.13;99182.31;4916938;29;20491;-75
2021/06/05 11:42:20;;;;;;;1.85;1.10;;;;;;;24.65;54.09;99184.69;4916638;29;20040;-74
2021/06/05 11:44:50;;;;;;;2.05;1.23;;;;;;;24.45;55.61;99181.63;4891213;29;20044;-75
2021/06/05 11:47:15;;;;;;;4.78;1.05;;;;;;;24.59;54.92;99175.38;4922342;29;20091;-77
2021/06/05 11:49:40;;;;;;;2.90;1.55;;;;;;;24.64;56.16;99169.75;4915848;29;20032;-78
2021/06/05 11:52:33;;;;;;;1.55;1.20;;;;;;;23.41;60.37;99174.41;4915528;29;20047;-77
2021/06/05 11:55:10;;;;;;;3.88;1.42;;;;;;;24.99;55.10;99164.63;4915242;29;20032;-78
2021/06/05 11:57:42;;;;;;;3.20;1.42;;;;;;;25.59;53.02;99166.50;4903369;29;20489;-78
2021/06/05 12:00:17;;;;;;;3.38;0.98;;;;;;;25.41;53.36;99163.38;4915438;29;20040;-77
2021/06/05 12:02:53;;;;;;;1.98;1.52;;;;;;;26.06;52.71;99160.34;4915456;29;20046;-77
2021/06/05 12:05:39;;;;;;;1.83;1.20;;;;;;;25.94;51.20;99161.25;4913732;29;20056;-76
2021/06/05 12:08:20;;;;;;;2.60;1.30;;;;;;;26.07;51.33;99155.88;4913870;29;20468;-79
2021/06/05 12:10:46;;;;;;;4.13;1.00;;;;;;;25.77;52.50;99153.69;4914204;29;20047;-79
2021/06/05 12:13:31;;;;;;;8.48;5.45;;;;;;;25.17;53.25;99149.25;4914260;29;20032;-79
2021/06/05 12:16:07;;;;;;;10.30;8.00;;;;;;;25.02;54.32;99151.16;4922439;29;20032;-79
2021/06/05 12:18:33;;;;;;;3.65;1.33;;;;;;;24.79;53.76;99150.97;4915567;29;20035;-77
2021/06/05 12:21:06;;;;;;;5.82;1.13;;;;;;;24.75;53.92;99144.19;4915566;29;20027;-78
2021/06/05 12:23:40;;;;;;;4.25;1.35;;;;;;;24.99;54.64;99138.09;4914092;29;20038;-78
2021/06/05 12:26:17;;;;;;;2.42;0.98;;;;;;;24.80;54.94;99131.50;4914871;29;20028;-77
2021/06/05 12:28:46;;;;;;;3.55;1.25;;;;;;;24.81;55.41;99132.34;4913786;29;20552;-78
2021/06/05 12:31:19;;;;;;;3.75;1.60;;;;;;;24.60;55.36;99126.72;4914552;29;21482;-78
2021/06/05 12:33:57;;;;;;;2.10;1.45;;;;;;;24.99;54.70;99124.84;4915140;29;20465;-78
2021/06/05 12:36:31;;;;;;;2.63;1.20;;;;;;;25.00;55.77;99122.13;4914559;29;20536;-78
2021/06/05 12:39:10;;;;;;;1.80;1.27;;;;;;;24.61;55.76;99112.50;4913766;29;20560;-80
2021/06/05 12:41:37;;;;;;;4.90;1.40;;;;;;;24.54;56.87;99120.06;4915406;29;20043;-78
2021/06/05 12:44:05;;;;;;;2.72;1.42;;;;;;;24.29;56.27;99120.88;4914843;29;21075;-79
2021/06/05 12:46:34;;;;;;;1.90;0.82;;;;;;;23.72;55.25;99121.22;4913495;29;20389;-73
2021/06/05 12:49:05;;;;;;;2.25;0.95;;;;;;;23.68;54.80;99119.72;4914912;29;20650;-82
2021/06/05 12:51:34;;;;;;;1.38;1.10;;;;;;;23.63;55.58;99121.78;4915694;29;20081;-75
2021/06/05 12:54:03;;;;;;;0.82;0.82;;;;;;;23.76;54.26;99124.50;4914810;29;20024;-74
2021/06/05 12:56:42;;;;;;;2.90;1.15;;;;;;;24.10;54.31;99131.03;4915395;29;20149;-77
2021/06/05 12:59:12;;;;;;;3.47;1.20;;;;;;;24.41;54.37;99118.34;4915032;29;20032;-72
2021/06/05 13:01:41;;;;;;;4.40;1.15;;;;;;;24.77;54.93;99115.78;4908973;29;21057;-83
2021/06/05 13:04:29;;;;;;;10.30;7.85;;;;;;;24.67;52.73;99117.41;4915327;29;20090;-84
2021/06/05 13:07:04;;;;;;;3.30;1.65;;;;;;;24.64;53.49;99125.56;4915895;29;20678;-82
2021/06/05 13:09:38;;;;;;;1.83;1.10;;;;;;;24.40;53.55;99121.97;4916063;29;20043;-78
2021/06/05 13:12:25;;;;;;;1.15;1.05;;;;;;;24.60;52.67;99119.63;4915434;29;20063;-74
2021/06/05 13:15:35;;;;;;;1.73;1.05;;;;;;;24.92;52.44;99113.00;4929941;23;20183;-74
2021/06/05 13:18:01;;;;;;;1.30;0.90;;;;;;;24.93;51.24;99109.38;4913874;29;20413;-78
2021/06/05 13:20:35;;;;;;;0.93;0.85;;;;;;;24.67;51.32;99109.44;4914329;29;20024;-75
2021/06/05 13:23:19;;;;;;;2.80;1.02;;;;;;;24.49;52.95;99111.56;4914676;29;20024;-73
2021/06/05 13:25:44;;;;;;;1.45;0.90;;;;;;;24.70;52.05;99103.91;4895573;29;20033;-72
2021/06/05 13:28:13;;;;;;;6.07;4.15;;;;;;;24.86;51.02;99103.69;4895373;29;20035;-71
2021/06/05 13:30:49;;;;;;;2.17;1.60;;;;;;;24.47;50.99;99099.41;4894846;29;20735;-71
2021/06/05 13:33:54;;;;;;;5.90;1.23;;;;;;;24.57;52.07;99097.81;4895307;29;20037;-71
2021/06/05 13:36:19;;;;;;;4.10;1.05;;;;;;;24.90;51.74;99096.34;4894685;29;20044;-71
2021/06/05 13:39:13;;;;;;;1.83;1.00;;;;;;;24.46;52.62;99095.03;4895431;29;20031;-72
2021/06/05 13:41:39;;;;;;;2.47;0.80;;;;;;;25.52;50.66;99094.44;4895265;29;20544;-71
2021/06/05 13:44:06;;;;;;;3.28;0.75;;;;;;;25.50;50.40;99090.22;4896961;29;20662;-72
2021/06/05 13:46:33;;;;;;;1.42;0.88;;;;;;;26.24;49.83;99086.34;4898841;29;20131;-72
2021/06/05 13:48:59;;;;;;;2.65;0.80;;;;;;;25.51;51.03;99083.94;4899054;29;20036;-78
2021/06/05 13:51:26;;;;;;;3.90;1.00;;;;;;;25.69;50.64;99085.22;4897654;29;20035;-80
2021/06/05 13:53:51;;;;;;;3.92;0.77;;;;;;;24.66;53.57;99080.38;4897848;29;20028;-78
2021/06/05 13:56:19;;;;;;;1.50;1.00;;;;;;;23.94;54.38;99082.75;4898684;29;20028;-78
2021/06/05 13:58:45;;;;;;;4.72;1.08;;;;;;;24.59;52.52;99085.28;4898926;29;20021;-78
2021/06/05 14:01:12;;;;;;;14.45;6.45;;;;;;;24.58;53.10;99094.19;4899034;29;20028;-80
2021/06/05 14:03:38;;;;;;;2.75;1.35;;;;;;;24.93;51.87;99093.47;4898446;29;20032;-78
2021/06/05 14:06:04;;;;;;;2.28;1.45;;;;;;;24.80;52.64;99089.06;4898413;29;20031;-78
2021/06/05 14:08:30;;;;;;;3.63;1.17;;;;;;;24.63;54.38;99086.78;4898620;29;20048;-79
2021/06/05 14:10:55;;;;;;;0.80;0.80;;;;;;;24.53;53.92;99096.31;4898524;29;20032;-76
2021/06/05 14:13:23;;;;;;;1.10;0.60;;;;;;;24.43;53.83;99085.53;4898384;29;20080;-74
2021/06/05 14:15:52;;;;;;;2.65;0.60;;;;;;;23.62;54.40;99087.50;4898235;29;20035;-74
2021/06/05 14:18:20;;;;;;;4.72;0.90;;;;;;;23.84;53.91;99072.78;4898289;29;21371;-75
2021/06/05 14:20:49;;;;;;;0.82;0.52;;;;;;;23.79;53.87;99074.88;4899093;29;20040;-74
2021/06/05 14:23:15;;;;;;;1.20;0.93;;;;;;;23.91;52.92;99072.34;4898791;29;20052;-73
2021/06/05 14:25:41;;;;;;;1.10;0.70;;;;;;;24.57;51.78;99063.38;4898399;29;20033;-72
2021/06/05 14:28:07;;;;;;;0.60;0.60;;;;;;;24.59;52.33;99069.38;4897929;29;20127;-72
2021/06/05 14:30:40;;;;;;;1.15;0.63;;;;;;;23.98;54.79;99066.53;4898659;29;20036;-76
2021/06/05 14:33:06;;;;;;;0.45;0.45;;;;;;;23.71;56.01;99071.91;4898140;29;20028;-72
2021/06/05 14:35:34;;;;;;;1.75;0.60;;;;;;;22.98;57.58;99076.69;4898444;29;20046;-71
2021/06/05 14:37:59;;;;;;;2.22;0.35;;;;;;;22.76;58.00;99078.00;4898259;29;20020;-71
2021/06/05 14:40:25;;;;;;;2.65;0.50;;;;;;;22.80;58.12;99079.53;4898268;29;21368;-72
2021/06/05 14:42:51;;;;;;;0.57;0.57;;;;;;;22.88;58.22;99094.06;4898123;29;20104;-71
2021/06/05 14:45:20;;;;;;;1.50;0.80;;;;;;;22.36;60.08;99099.94;4897969;29;20035;-71
2021/06/05 14:47:45;;;;;;;1.73;0.90;;;;;;;21.58;64.49;99117.75;4898159;29;21026;-73
2021/06/05 14:50:14;;;;;;;2.03;1.10;;;;;;;21.14;67.21;99111.38;4898127;29;20028;-70
2021/06/05 14:52:40;;;;;;;6.82;1.58;;;;;;;20.75;69.09;99123.19;4897938;29;20039;-70
2021/06/05 14:55:08;;;;;;;5.38;1.42;;;;;;;20.61;70.15;99122.22;4897818;29;20033;-71
2021/06/05 14:57:34;;;;;;;1.27;1.10;;;;;;;20.47;71.21;99130.84;4898274;29;20812;-70
2021/06/05 14:59:59;;;;;;;2.70;1.10;;;;;;;20.67;70.90;99143.78;4897890;29;20033;-70
2021/06/05 15:02:24;;;;;;;7.70;1.42;;;;;;;20.63;71.70;99133.50;4897519;29;20091;-70
2021/06/05 15:04:50;;;;;;;3.25;1.20;;;;;;;20.48;71.45;99145.69;4897880;29;20059;-74
2021/06/05 15:07:16;;;;;;;2.03;1.00;;;;;;;20.20;72.49;99148.88;4897659;29;20040;-74
2021/06/05 15:09:42;;;;;;;2.55;0.82;;;;;;;19.74;74.03;99159.94;4897645;29;20610;-75
2021/06/05 15:12:08;;;;;;;3.83;1.00;;;;;;;19.76;74.41;99165.13;4897568;29;20041;-74
2021/06/05 15:14:33;;;;;;;2.58;1.00;;;;;;;19.86;73.89;99169.00;4897679;29;20044;-74
2021/06/05 15:16:59;;;;;;;1.30;0.98;;;;;;;20.10;72.66;99179.22;4897402;29;20486;-74
2021/06/05 15:19:25;;;;;;;2.63;1.00;;;;;;;20.50;71.03;99170.16;4897847;29;20033;-74
2021/06/05 15:21:50;;;;;;;1.00;0.75;;;;;;;20.34;70.59;99179.75;4897399;29;20626;-74
2021/06/05 15:24:15;;;;;;;11.95;8.70;;;;;;;20.47;69.59;99186.97;4897444;29;20032;-74
2021/06/05 15:26:41;;;;;;;7.55;0.90;;;;;;;19.63;72.05;99178.03;4897158;29;20486;-75
2021/06/05 15:29:06;;;;;;;5.80;0.95;;;;;;;20.46;68.77;99168.59;4897245;29;20036;-75
2021/06/05 15:31:32;;;;;;;6.07;0.50;;;;;;;19.97;68.92;99171.13;4897323;29;20366;-74
2021/06/05 15:33:59;;;;;;;1.52;0.50;;;;;;;20.27;68.13;99173.97;4897484;29;20032;-72
2021/06/05 15:36:24;;;;;;;0.98;0.82;;;;;;;20.50;67.71;99178.06;4897292;29;20032;-74
2021/06/05 15:38:49;;;;;;;5.18;4.10;;;;;;;20.93;66.37;99179.25;4897318;29;20021;-73
2021/06/05 15:41:17;;;;;;;0.93;0.55;;;;;;;20.98;67.01;99179.91;4897234;29;20103;-73
2021/06/05 15:43:42;;;;;;;2.13;0.77;;;;;;;21.29;66.53;99186.13;4897058;29;20055;-73
2021/06/05 15:46:11;;;;;;;1.77;0.55;;;;;;;21.03;65.84;99185.75;4896766;29;20135;-73
2021/06/05 15:48:41;;;;;;;1.73;0.40;;;;;;;20.75;66.65;99186.38;4897206;29;20089;-73
2021/06/05 15:51:12;;;;;;;2.83;1.00;;;;;;;20.62;68.06;99193.22;4897264;29;20024;-73
2021/06/05 15:53:39;;;;;;;1.30;1.15;;;;;;;20.48;67.59;99185.19;4896934;29;20032;-74
2021/06/05 15:56:10;;;;;;;1.63;1.13;;;;;;;20.27;68.43;99182.72;4896853;29;20032;-72
2021/06/05 15:58:37;;;;;;;4.72;3.03;;;;;;;20.16;69.42;99177.16;4896734;29;20478;-74
2021/06/05 16:01:03;;;;;;;10.43;6.15;;;;;;;19.84;70.38;99180.53;4896807;29;20091;-76
2021/06/05 16:03:29;;;;;;;5.25;1.73;;;;;;;19.75;71.06;99182.69;4895426;29;20123;-75
2021/06/05 16:05:55;;;;;;;6.38;5.45;;;;;;;19.63;71.76;99182.41;4896107;29;20039;-74
2021/06/05 16:08:20;;;;;;;7.22;3.65;;;;;;;19.67;72.08;99179.56;4896586;29;20033;-74
2021/06/05 16:10:46;;;;;;;0.70;0.70;;;;;;;19.70;72.62;99184.69;4896609;29;20028;-74
2021/06/05 16:13:12;;;;;;;0.98;0.70;;;;;;;19.67;73.46;99178.72;4896262;29;20563;-74
2021/06/05 16:15:41;;;;;;;2.45;0.80;;;;;;;19.24;76.22;99181.59;4896488;29;20497;-74
2021/06/05 16:18:10;;;;;;;14.45;10.35;;;;;;;19.18;78.48;99174.00;4896404;29;20177;-75
2021/06/05 16:20:36;;;;;;;7.70;5.93;;;;;;;19.09;78.91;99174.41;4896251;29;20108;-74
2021/06/05 16:23:02;;;;;;;1.25;1.00;;;;;;;18.99;79.43;99175.75;4896490;29;20036;-74
2021/06/05 16:25:31;;;;;;;2.03;1.73;;;;;;;19.13;80.67;99177.75;4896399;29;20727;-74
2021/06/05 16:27:57;;;;;;;1.20;0.90;;;;;;;19.02;81.95;99175.63;4895865;29;20050;-75
2021/06/05 16:30:27;;;;;;;1.40;0.90;;;;;;;18.82;83.29;99173.06;4896307;29;20355;-74
2021/06/05 16:32:53;;;;;;;2.42;0.90;;;;;;;18.98;81.68;99163.56;4896221;29;20121;-75
2021/06/05 16:35:22;;;;;;;1.35;1.25;;;;;;;18.86;82.31;99154.50;4896173;29;20039;-75
2021/06/05 16:37:47;;;;;;;2.80;1.00;;;;;;;18.62;82.64;99161.66;4896125;29;20028;-74
2021/06/05 16:40:13;;;;;;;1.73;0.90;;;;;;;18.61;84.11;99162.56;4895646;29;20448;-74
2021/06/05 16:42:38;;;;;;;1.90;0.82;;;;;;;18.62;84.44;99161.66;4895907;29;20033;-75
2021/06/05 16:45:09;;;;;;;4.53;1.40;;;;;;;18.49;84.33;99160.50;4896096;29;20036;-74
2021/06/05 16:47:34;;;;;;;6.45;1.23;;;;;;;18.38;84.45;99157.50;4895702;29;20028;-74
2021/06/05 16:50:00;;;;;;;1.02;0.90;;;;;;;18.27;84.72;99164.97;4896101;29;20042;-75
2021/06/05 16:52:28;;;;;;;1.40;1.30;;;;;;;18.10;86.89;99169.16;4895963;29;20029;-74
2021/06/05 16:54:54;;;;;;;4.05;1.08;;;;;;;18.19;86.55;99160.91;4895645;29;20111;-76
2021/06/05 16:57:19;;;;;;;2.58;1.23;;;;;;;18.31;86.05;99150.78;4895654;29;20507;-75
2021/06/05 16:59:44;;;;;;;3.33;1.50;;;;;;;18.14;84.96;99157.63;4895759;29;20353;-75
2021/06/05 17:02:10;;;;;;;2.17;1.10;;;;;;;18.27;84.37;99155.31;4895588;29;20123;-75
2021/06/05 17:04:36;;;;;;;4.78;1.17;;;;;;;18.26;86.13;99148.38;4895592;29;20116;-74
2021/06/05 17:07:01;;;;;;;1.25;1.10;;;;;;;18.06;86.93;99151.84;4895676;29;20076;-74
2021/06/05 17:09:27;;;;;;;3.13;1.20;;;;;;;18.26;86.14;99151.00;4895540;29;20024;-75
2021/06/05 17:11:53;;;;;;;1.70;1.00;;;;;;;18.31;86.22;99153.41;4895521;29;20155;-75
2021/06/05 17:14:19;;;;;;;2.55;0.82;;;;;;;18.20;84.99;99154.75;4895600;29;20969;-76
2021/06/05 17:16:44;;;;;;;3.47;1.60;;;;;;;18.31;85.88;99156.91;4895552;29;20091;-75
2021/06/05 17:19:10;;;;;;;3.47;1.20;;;;;;;18.18;86.00;99160.94;4894898;29;20051;-75
2021/06/05 17:21:35;;;;;;;2.95;1.15;;;;;;;18.08;86.02;99162.28;4895428;29;20115;-75
2021/06/05 17:24:05;;;;;;;4.00;0.80;;;;;;;18.12;85.46;99162.06;4895542;29;20516;-75
2021/06/05 17:26:31;;;;;;;5.65;1.08;;;;;;;17.80;86.80;99166.06;4895708;29;20071;-74
2021/06/05 17:28:56;;;;;;;3.83;1.13;;;;;;;17.71;89.30;99171.66;4896118;29;20036;-72
2021/06/05 17:31:24;;;;;;;5.47;1.40;;;;;;;17.65;90.64;99167.50;4895216;29;21350;-71
2021/06/05 17:33:49;;;;;;;4.18;1.58;;;;;;;17.60;91.15;99164.22;4895356;29;20512;-70
2021/06/05 17:36:17;;;;;;;7.63;2.20;;;;;;;17.63;90.16;99169.31;4895423;29;20036;-72
2021/06/05 17:38:43;;;;;;;1.60;1.50;;;;;;;17.63;90.74;99148.34;4895178;29;20624;-71
2021/06/05 17:41:11;;;;;;;4.13;1.20;;;;;;;17.64;91.04;99150.06;4903571;29;20024;-72
2021/06/05 17:43:38;;;;;;;6.45;1.38;;;;;;;17.60;91.54;99156.38;4894911;29;20032;-72
2021/06/05 17:46:05;;;;;;;3.42;1.42;;;;;;;17.47;92.82;99160.38;4895027;29;20025;-71
2021/06/05 17:48:33;;;;;;;3.58;1.40;;;;;;;17.32;93.95;99158.38;4895077;29;20036;-72
2021/06/05 17:50:59;;;;;;;3.08;1.80;;;;;;;17.26;96.12;99161.22;4894941;29;20033;-73
2021/06/05 17:53:24;;;;;;;2.28;1.85;;;;;;;17.18;97.03;99167.63;4893564;29;20037;-73
2021/06/05 17:55:50;;;;;;;5.05;2.15;;;;;;;17.26;98.08;99163.81;4895041;29;20032;-72
2021/06/05 17:58:21;;;;;;;3.38;1.90;;;;;;;17.14;97.21;99166.03;4895077;29;20390;-68
2021/06/05 18:00:51;;;;;;;6.15;1.75;;;;;;;17.28;98.12;99162.03;4895273;29;20076;-69
2021/06/05 18:03:42;;;;;;;3.33;1.70;;;;;;;17.33;96.75;99170.56;4895127;29;20098;-72
2021/06/05 18:06:08;;;;;;;5.15;2.03;;;;;;;17.16;96.53;99168.56;4895127;29;20159;-72
2021/06/05 18:08:34;;;;;;;2.53;1.90;;;;;;;17.10;96.00;99169.66;4894798;29;20389;-72
2021/06/05 18:11:03;;;;;;;2.53;1.00;;;;;;;16.84;95.48;99175.03;4894947;29;20024;-72
2021/06/05 18:13:28;;;;;;;2.40;1.00;;;;;;;16.86;94.90;99165.34;4895025;29;20029;-71
2021/06/05 18:15:58;;;;;;;2.10;1.02;;;;;;;16.89;95.73;99162.63;4894734;29;20080;-72
2021/06/05 18:18:23;;;;;;;4.55;0.70;;;;;;;16.88;95.81;99168.78;4894680;29;20035;-71
2021/06/05 18:20:50;;;;;;;1.02;0.95;;;;;;;16.85;96.08;99163.66;4894931;29;20033;-71
2021/06/05 18:23:16;;;;;;;1.98;0.90;;;;;;;16.84;96.85;99162.81;4895080;29;20039;-72
2021/06/05 18:25:42;;;;;;;1.17;0.75;;;;;;;16.84;95.70;99168.03;4894622;29;20061;-71
2021/06/05 18:28:09;;;;;;;0.93;0.90;;;;;;;16.98;96.42;99170.16;4894547;29;20047;-72
2021/06/05 18:30:37;;;;;;;1.67;1.17;;;;;;;17.03;96.63;99165.59;4897077;29;20041;-72
2021/06/05 18:33:04;;;;;;;3.20;0.90;;;;;;;17.10;96.55;99168.81;4898221;29;20032;-72
2021/06/05 18:35:33;;;;;;;2.08;1.45;;;;;;;17.08;95.60;99166.25;4898222;29;20028;-71
2021/06/05 18:37:59;;;;;;;;;;;;;;;17.09;95.47;99167.97;4898571;29;20040;-72
2021/06/05 18:40:27;;;;;;;0.85;0.85;;;;;;;17.16;94.85;99169.44;4898085;29;20369;-72
2021/06/05 18:42:52;;;;;;;1.63;1.08;;;;;;;17.17;94.45;99168.53;4898121;29;20032;-72
2021/06/05 18:45:22;;;;;;;0.70;0.70;;;;;;;17.05;93.89;99173.38;4898178;29;20058;-72
2021/06/05 18:47:48;;;;;;;1.60;1.23;;;;;;;16.95;96.05;99168.47;4897924;29;20062;-72
2021/06/05 18:50:17;;;;;;;1.42;1.00;;;;;;;16.86;96.84;99170.59;4898014;29;20029;-72